Time;durP1;ratioP1;P1;durP2;ratioP2;P2;SDS_P1;SDS_P2;PMS_P1;PMS_P2;Temp;Humidity;BMP_temperature;BMP_pressure;BME280_temperature;BME280_humidity;BME280_pressure;Samples;Min_cycle;Max_cycle;Signal;HPM_P1;HPM_P2
2022/03/12 00:01:47;;;;;;;91.93;34.33;;;;;;;;;;5074786;28;20195;-51
2022/03/12 00:04:16;;;;;;;104.23;37.00;;;;;;;;;;5075633;28;20504;-50
2022/03/12 00:06:43;;;;;;;98.37;34.17;;;;;;;;;;5074745;28;20254;-50
2022/03/12 00:09:10;;;;;;;86.13;32.90;;;;;;;;;;5074849;28;20299;-50
2022/03/12 00:11:51;;;;;;;74.27;30.07;;;;;;;;;;5074627;28;20257;-49
2022/03/12 00:14:21;;;;;;;74.07;29.83;;;;;;;;;;5074786;28;20252;-50
2022/03/12 00:16:49;;;;;;;66.50;29.37;;;;;;;;;;5075156;28;20191;-50
2022/03/12 00:19:21;;;;;;;77.37;31.43;;;;;;;;;;5074822;28;20235;-50
2022/03/12 00:21:49;;;;;;;77.60;33.47;;;;;;;;;;5074741;28;20277;-50
2022/03/12 00:24:18;;;;;;;122.33;44.10;;;;;;;;;;5074621;28;20199;-50
2022/03/12 00:26:46;;;;;;;123.20;40.83;;;;;;;;;;5074268;28;20672;-50
2022/03/12 00:29:16;;;;;;;124.97;38.50;;;;;;;;;;5074874;28;20214;-50
2022/03/12 00:31:45;;;;;;;90.87;33.27;;;;;;;;;;5074615;28;20203;-50
2022/03/12 00:34:13;;;;;;;119.13;38.00;;;;;;;;;;5074684;28;20203;-50
2022/03/12 00:36:41;;;;;;;120.43;39.67;;;;;;;;;;5074793;28;20227;-50
2022/03/12 00:39:09;;;;;;;89.60;32.27;;;;;;;;;;5075235;28;20211;-50
2022/03/12 00:41:44;;;;;;;95.53;32.23;;;;;;;;;;5074830;28;20222;-50
2022/03/12 00:44:12;;;;;;;104.37;34.43;;;;;;;;;;5074586;28;20217;-50
2022/03/12 00:46:40;;;;;;;67.60;27.73;;;;;;;;;;5074368;28;20234;-49
2022/03/12 00:49:07;;;;;;;86.10;30.97;;;;;;;;;;5072098;28;20626;-51
2022/03/12 00:51:34;;;;;;;92.97;33.03;;;;;;;;;;5063968;28;20634;-51
2022/03/12 00:54:01;;;;;;;99.13;32.57;;;;;;;;;;5055016;28;20293;-50
2022/03/12 00:56:28;;;;;;;76.73;28.83;;;;;;;;;;5054211;28;20212;-49
2022/03/12 00:58:56;;;;;;;82.27;27.97;;;;;;;;;;5054426;28;20208;-49
2022/03/12 01:01:25;;;;;;;65.20;25.97;;;;;;;;;;5054212;28;20230;-50
2022/03/12 01:03:53;;;;;;;161.37;44.37;;;;;;;;;;5054580;28;20227;-50
2022/03/12 01:06:20;;;;;;;165.50;44.53;;;;;;;;;;5054192;28;20211;-49
2022/03/12 01:08:47;;;;;;;112.60;36.47;;;;;;;;;;5054335;28;20667;-50
2022/03/12 01:11:14;;;;;;;110.70;33.03;;;;;;;;;;5054395;28;20234;-50
2022/03/12 01:13:41;;;;;;;68.43;27.33;;;;;;;;;;5054264;28;20291;-50
2022/03/12 01:16:09;;;;;;;67.97;26.87;;;;;;;;;;5054002;28;20232;-49
2022/03/12 01:18:39;;;;;;;68.33;27.23;;;;;;;;;;5054263;28;20204;-50
2022/03/12 01:21:17;;;;;;;65.77;25.97;;;;;;;;;;5054218;28;20215;-50
2022/03/12 01:23:49;;;;;;;66.60;27.33;;;;;;;;;;5054064;28;20587;-49
2022/03/12 01:26:18;;;;;;;97.60;30.67;;;;;;;;;;5020230;28;20200;-51
2022/03/12 01:28:46;;;;;;;97.13;29.13;;;;;;;;;;5054114;28;20315;-50
2022/03/12 01:31:15;;;;;;;61.07;23.70;;;;;;;;;;5054245;28;20208;-52
2022/03/12 01:33:42;;;;;;;69.70;24.33;;;;;;;;;;5053818;28;20202;-49
2022/03/12 01:36:09;;;;;;;56.00;21.50;;;;;;;;;;5054438;28;20234;-50
2022/03/12 01:38:51;;;;;;;63.47;22.17;;;;;;;;;;5054934;28;20232;-52
2022/03/12 01:41:23;;;;;;;62.23;22.73;;;;;;;;;;5057627;28;20234;-51
2022/03/12 01:43:53;;;;;;;56.23;21.13;;;;;;;;;;5057767;28;20232;-50
2022/03/12 01:46:35;;;;;;;75.87;28.83;;;;;;;;;;5057429;28;20666;-49
2022/03/12 01:49:06;;;;;;;106.97;31.43;;;;;;;;;;5057648;28;20294;-49
2022/03/12 01:51:33;;;;;;;99.77;27.63;;;;;;;;;;5057919;28;20204;-50
2022/03/12 01:54:02;;;;;;;60.87;20.47;;;;;;;;;;5057258;28;20226;-50
2022/03/12 01:56:30;;;;;;;66.73;21.93;;;;;;;;;;5057620;28;20211;-50
2022/03/12 01:58:59;;;;;;;64.47;23.00;;;;;;;;;;5057134;28;20219;-51
2022/03/12 02:01:28;;;;;;;70.73;24.73;;;;;;;;;;5057259;28;20254;-50
2022/03/12 02:04:04;;;;;;;148.57;54.97;;;;;;;;;;5057433;28;20259;-51
2022/03/12 02:06:32;;;;;;;181.20;72.70;;;;;;;;;;5057946;28;20207;-50
2022/03/12 02:09:00;;;;;;;132.77;49.47;;;;;;;;;;5056925;28;20305;-49
2022/03/12 02:11:28;;;;;;;87.90;31.77;;;;;;;;;;5056907;28;20219;-50
2022/03/12 02:14:15;;;;;;;87.50;28.87;;;;;;;;;;5057051;28;20203;-50
2022/03/12 02:17:05;;;;;;;63.67;23.50;;;;;;;;;;5056901;28;20239;-51
2022/03/12 02:19:32;;;;;;;63.53;23.07;;;;;;;;;;5057132;28;20233;-50
2022/03/12 02:22:08;;;;;;;59.03;22.37;;;;;;;;;;5056680;28;20301;-50
2022/03/12 02:24:36;;;;;;;60.40;22.47;;;;;;;;;;5056940;28;20204;-49
2022/03/12 02:27:06;;;;;;;65.03;23.77;;;;;;;;;;5056800;28;20224;-50
2022/03/12 02:29:33;;;;;;;120.60;30.93;;;;;;;;;;5057037;28;20235;-50
2022/03/12 02:32:06;;;;;;;99.37;30.30;;;;;;;;;;5056525;28;20196;-51
2022/03/12 02:34:40;;;;;;;88.43;27.10;;;;;;;;;;5056965;28;20227;-50
2022/03/12 02:37:07;;;;;;;65.23;23.30;;;;;;;;;;5057318;28;20192;-52
2022/03/12 02:39:37;;;;;;;47.10;20.27;;;;;;;;;;5056396;28;20224;-51
2022/03/12 02:42:08;;;;;;;91.50;33.47;;;;;;;;;;5056560;28;20273;-50
2022/03/12 02:44:35;;;;;;;97.53;39.67;;;;;;;;;;5056582;28;20231;-50
2022/03/12 02:47:15;;;;;;;77.77;27.90;;;;;;;;;;5056482;28;20222;-51
2022/03/12 02:49:56;;;;;;;68.83;24.80;;;;;;;;;;5056093;28;20200;-50
2022/03/12 02:52:27;;;;;;;61.37;22.37;;;;;;;;;;5056404;28;20204;-50
2022/03/12 02:54:57;;;;;;;64.83;23.17;;;;;;;;;;5056271;28;20673;-49
2022/03/12 02:57:26;;;;;;;64.27;22.90;;;;;;;;;;5056356;28;20290;-51
2022/03/12 02:59:54;;;;;;;53.17;20.87;;;;;;;;;;5056224;28;20811;-51
2022/03/12 03:02:46;;;;;;;56.00;21.07;;;;;;;;;;5056232;28;20266;-50
2022/03/12 03:05:51;;;;;;;69.60;27.47;;;;;;;;;;5055853;28;20279;-50
2022/03/12 03:08:21;;;;;;;65.23;27.10;;;;;;;;;;5051282;28;20262;-50
2022/03/12 03:10:51;;;;;;;63.30;23.67;;;;;;;;;;5056559;28;20211;-50
2022/03/12 03:13:19;;;;;;;84.30;28.47;;;;;;;;;;5055758;28;20200;-50
2022/03/12 03:16:00;;;;;;;70.83;25.47;;;;;;;;;;5056317;28;20281;-50
2022/03/12 03:18:33;;;;;;;51.37;22.00;;;;;;;;;;5055888;28;20210;-53
2022/03/12 03:21:01;;;;;;;71.57;24.67;;;;;;;;;;5056196;28;20228;-50
2022/03/12 03:23:30;;;;;;;58.10;21.87;;;;;;;;;;5055530;28;20249;-49
2022/03/12 03:26:00;;;;;;;63.40;24.20;;;;;;;;;;5055795;28;20204;-52
2022/03/12 03:28:27;;;;;;;78.80;29.03;;;;;;;;;;5055660;28;20603;-52
2022/03/12 03:30:55;;;;;;;90.60;30.03;;;;;;;;;;5055464;28;20218;-52
2022/03/12 03:33:25;;;;;;;90.77;30.53;;;;;;;;;;5055409;28;20232;-52
2022/03/12 03:35:52;;;;;;;49.77;20.63;;;;;;;;;;5056233;28;20212;-54
2022/03/12 03:38:20;;;;;;;49.07;20.60;;;;;;;;;;5055299;28;20295;-56
2022/03/12 03:40:47;;;;;;;52.70;21.03;;;;;;;;;;5055803;28;20203;-49
2022/03/12 03:43:17;;;;;;;54.50;21.47;;;;;;;;;;5038248;28;20287;-50
2022/03/12 03:45:47;;;;;;;47.93;19.93;;;;;;;;;;5055557;28;20266;-50
2022/03/12 03:48:16;;;;;;;52.00;21.57;;;;;;;;;;5055195;28;20608;-51
2022/03/12 03:50:45;;;;;;;62.60;22.27;;;;;;;;;;5055351;28;20208;-50
2022/03/12 03:53:15;;;;;;;75.57;23.70;;;;;;;;;;5055040;28;20228;-52
2022/03/12 03:55:42;;;;;;;54.17;20.83;;;;;;;;;;5055269;28;20211;-49
2022/03/12 03:58:15;;;;;;;45.87;18.23;;;;;;;;;;5054932;28;20295;-49
2022/03/12 04:00:57;;;;;;;39.93;16.93;;;;;;;;;;5054801;28;20593;-49
2022/03/12 04:03:29;;;;;;;43.07;17.57;;;;;;;;;;5055342;28;20239;-50
2022/03/12 04:05:56;;;;;;;41.37;16.93;;;;;;;;;;5055101;28;20223;-50
2022/03/12 04:08:23;;;;;;;43.47;20.83;;;;;;;;;;5054900;28;20234;-49
2022/03/12 04:10:51;;;;;;;41.23;19.27;;;;;;;;;;5054886;28;20199;-50
2022/03/12 04:13:20;;;;;;;47.77;21.43;;;;;;;;;;5055361;28;20199;-50
2022/03/12 04:15:48;;;;;;;63.33;26.33;;;;;;;;;;5054991;28;20605;-49
2022/03/12 04:18:15;;;;;;;51.60;20.87;;;;;;;;;;5055067;28;20207;-50
2022/03/12 04:20:47;;;;;;;53.13;19.97;;;;;;;;;;5054747;28;20243;-49
2022/03/12 04:23:20;;;;;;;36.13;17.60;;;;;;;;;;5054751;28;20203;-50
2022/03/12 04:25:48;;;;;;;50.47;20.07;;;;;;;;;;5054630;28;20220;-51
2022/03/12 04:28:15;;;;;;;42.50;19.30;;;;;;;;;;5054485;28;20700;-50
2022/03/12 04:30:42;;;;;;;44.13;19.50;;;;;;;;;;5054283;28;20208;-51
2022/03/12 04:33:11;;;;;;;50.50;20.73;;;;;;;;;;5054256;28;20223;-50
2022/03/12 04:35:38;;;;;;;66.10;22.43;;;;;;;;;;5054233;28;20218;-50
2022/03/12 04:38:09;;;;;;;62.03;21.27;;;;;;;;;;5037116;28;20207;-49
2022/03/12 04:40:41;;;;;;;50.87;18.97;;;;;;;;;;5054467;28;20289;-49
2022/03/12 04:43:09;;;;;;;49.70;20.30;;;;;;;;;;5054167;28;20204;-50
2022/03/12 04:45:36;;;;;;;55.30;22.50;;;;;;;;;;5054504;28;20211;-49
2022/03/12 04:48:04;;;;;;;57.03;21.83;;;;;;;;;;5054127;28;20314;-51
2022/03/12 04:50:31;;;;;;;48.37;20.40;;;;;;;;;;5054063;28;20204;-50
2022/03/12 04:53:01;;;;;;;50.97;20.07;;;;;;;;;;5054559;28;20196;-49
2022/03/12 04:55:29;;;;;;;46.40;19.90;;;;;;;;;;5054572;28;20224;-50
2022/03/12 04:57:56;;;;;;;49.30;20.03;;;;;;;;;;5053937;28;20250;-49
2022/03/12 05:00:29;;;;;;;56.30;22.27;;;;;;;;;;5053973;28;20215;-54
2022/03/12 05:03:14;;;;;;;50.33;19.70;;;;;;;;;;5054208;28;20259;-50
2022/03/12 05:05:43;;;;;;;50.73;20.50;;;;;;;;;;5054118;28;20200;-50
2022/03/12 05:08:25;;;;;;;45.97;19.50;;;;;;;;;;5053741;28;20222;-51
2022/03/12 05:10:54;;;;;;;52.83;20.87;;;;;;;;;;5037258;28;20195;-51
2022/03/12 05:13:27;;;;;;;51.63;22.13;;;;;;;;;;5020702;28;20224;-52
2022/03/12 05:15:58;;;;;;;57.60;22.63;;;;;;;;;;5057063;28;20638;-52
2022/03/12 05:18:26;;;;;;;51.80;20.47;;;;;;;;;;5057251;28;20575;-55
2022/03/12 05:20:54;;;;;;;51.37;23.43;;;;;;;;;;5057116;28;20634;-50
2022/03/12 05:23:23;;;;;;;168.63;69.97;;;;;;;;;;5056874;28;20200;-51
2022/03/12 05:25:53;;;;;;;134.13;51.00;;;;;;;;;;5056969;28;20204;-50
2022/03/12 05:28:23;;;;;;;106.47;44.10;;;;;;;;;;5056761;28;20250;-50
2022/03/12 05:30:56;;;;;;;90.40;37.53;;;;;;;;;;5056881;28;20189;-52
2022/03/12 05:33:24;;;;;;;55.77;24.67;;;;;;;;;;5056939;28;20208;-52
2022/03/12 05:35:54;;;;;;;60.63;25.47;;;;;;;;;;5059923;28;20219;-51
2022/03/12 05:38:30;;;;;;;64.33;25.40;;;;;;;;;;5065968;28;20219;-51
2022/03/12 05:40:58;;;;;;;64.07;26.97;;;;;;;;;;5069324;28;20226;-52
2022/03/12 05:43:26;;;;;;;62.47;26.90;;;;;;;;;;5072628;28;20669;-53
2022/03/12 05:45:56;;;;;;;64.60;26.90;;;;;;;;;;5069887;28;20295;-51
2022/03/12 05:48:24;;;;;;;64.10;27.57;;;;;;;;;;5073177;28;20660;-51
2022/03/12 05:50:51;;;;;;;66.90;27.80;;;;;;;;;;5074415;28;20278;-52
2022/03/12 05:53:19;;;;;;;69.03;28.03;;;;;;;;;;5075338;28;20207;-52
2022/03/12 05:55:47;;;;;;;70.67;28.40;;;;;;;;;;5075070;28;20196;-50
2022/03/12 05:58:17;;;;;;;70.77;29.03;;;;;;;;;;5073663;28;20207;-51
2022/03/12 06:00:47;;;;;;;63.23;29.17;;;;;;;;;;5074682;28;20203;-52
2022/03/12 06:03:15;;;;;;;63.80;28.33;;;;;;;;;;5075478;28;20620;-50
2022/03/12 06:05:43;;;;;;;71.33;28.37;;;;;;;;;;5076054;28;20211;-51
2022/03/12 06:08:21;;;;;;;79.67;30.87;;;;;;;;;;5074961;28;20187;-50
2022/03/12 06:10:51;;;;;;;157.90;52.93;;;;;;;;;;5075756;28;20602;-53
2022/03/12 06:13:22;;;;;;;176.50;82.27;;;;;;;;;;5075951;28;20606;-50
2022/03/12 06:15:58;;;;;;;176.43;53.90;;;;;;;;;;5073446;28;20196;-53
2022/03/12 06:18:32;;;;;;;87.70;31.43;;;;;;;;;;5076148;28;20203;-53
2022/03/12 06:21:05;;;;;;;78.33;30.70;;;;;;;;;;5065644;28;20215;-50
2022/03/12 06:23:32;;;;;;;74.53;30.20;;;;;;;;;;5065398;28;20231;-49
2022/03/12 06:26:02;;;;;;;60.40;25.97;;;;;;;;;;5074951;28;20273;-50
2022/03/12 06:28:30;;;;;;;68.27;28.40;;;;;;;;;;5075523;28;20238;-49
2022/03/12 06:30:58;;;;;;;88.20;30.80;;;;;;;;;;5075603;28;20310;-51
2022/03/12 06:33:26;;;;;;;374.87;177.23;;;;;;;;;;5075556;28;20288;-49
2022/03/12 06:35:53;;;;;;;139.43;55.70;;;;;;;;;;5075079;28;20525;-50
2022/03/12 06:38:21;;;;;;;89.27;32.00;;;;;;;;;;5075642;28;20246;-55
2022/03/12 06:40:49;;;;;;;99.20;35.10;;;;;;;;;;5075202;28;20227;-51
2022/03/12 06:43:19;;;;;;;99.30;33.57;;;;;;;;;;5075671;28;20219;-49
2022/03/12 06:45:48;;;;;;;81.93;31.30;;;;;;;;;;5064445;28;20282;-52
2022/03/12 06:48:16;;;;;;;77.50;31.10;;;;;;;;;;5073405;28;20662;-50
2022/03/12 06:50:44;;;;;;;336.07;145.73;;;;;;;;;;5074576;28;20230;-49
2022/03/12 06:53:12;;;;;;;278.30;143.67;;;;;;;;;;5075452;28;20223;-50
2022/03/12 06:55:39;;;;;;;110.93;46.03;;;;;;;;;;5074924;28;20258;-49
2022/03/12 06:58:08;;;;;;;79.67;31.20;;;;;;;;;;5074965;28;20243;-49
2022/03/12 07:00:35;;;;;;;64.23;28.77;;;;;;;;;;5074892;28;20285;-50
2022/03/12 07:03:03;;;;;;;67.70;29.60;;;;;;;;;;5075206;28;20265;-48
2022/03/12 07:05:31;;;;;;;63.10;27.37;;;;;;;;;;5074070;28;20238;-51
2022/03/12 07:07:58;;;;;;;56.80;27.50;;;;;;;;;;5075358;28;20284;-49
2022/03/12 07:10:25;;;;;;;51.67;25.90;;;;;;;;;;5074161;28;20265;-52
2022/03/12 07:12:52;;;;;;;68.10;32.60;;;;;;;;;;5075298;28;20227;-49
2022/03/12 07:15:21;;;;;;;87.60;40.80;;;;;;;;;;5072163;28;20258;-57
2022/03/12 07:17:49;;;;;;;65.13;29.03;;;;;;;;;;5065709;28;20251;-51
2022/03/12 07:20:17;;;;;;;53.60;25.10;;;;;;;;;;5072870;28;20220;-54
2022/03/12 07:22:45;;;;;;;49.47;24.13;;;;;;;;;;5073393;28;20673;-50
2022/03/12 07:25:14;;;;;;;42.67;21.93;;;;;;;;;;5070706;28;20250;-53
2022/03/12 07:27:42;;;;;;;58.33;27.23;;;;;;;;;;5073337;28;20219;-50
2022/03/12 07:30:13;;;;;;;61.13;28.77;;;;;;;;;;5072951;28;20313;-51
2022/03/12 07:32:42;;;;;;;63.83;29.97;;;;;;;;;;5073429;28;20306;-52
2022/03/12 07:35:12;;;;;;;69.90;34.43;;;;;;;;;;5071554;28;20697;-53
2022/03/12 07:37:40;;;;;;;70.73;35.63;;;;;;;;;;5072129;28;20211;-53
2022/03/12 07:40:09;;;;;;;63.90;29.93;;;;;;;;;;5073568;28;20254;-48
2022/03/12 07:42:37;;;;;;;58.37;28.07;;;;;;;;;;5073004;28;20215;-50
2022/03/12 07:45:09;;;;;;;63.03;29.43;;;;;;;;;;5073274;28;20327;-59
2022/03/12 07:47:37;;;;;;;57.83;26.97;;;;;;;;;;5068545;28;20245;-57
2022/03/12 07:50:06;;;;;;;66.53;28.77;;;;;;;;;;5071775;28;20234;-53
2022/03/12 07:52:33;;;;;;;71.57;29.77;;;;;;;;;;5069425;28;20686;-52
2022/03/12 07:55:02;;;;;;;54.53;26.77;;;;;;;;;;5072985;28;20357;-52
2022/03/12 07:57:29;;;;;;;178.97;106.60;;;;;;;;;;5072316;28;20222;-51
2022/03/12 07:59:58;;;;;;;67.53;42.60;;;;;;;;;;5068687;28;20245;-53
2022/03/12 08:02:26;;;;;;;55.17;26.57;;;;;;;;;;5071909;28;20294;-54
2022/03/12 08:04:53;;;;;;;57.43;26.27;;;;;;;;;;5073183;28;20233;-55
2022/03/12 08:07:21;;;;;;;56.50;25.53;;;;;;;;;;5073247;28;20231;-52
2022/03/12 08:09:55;;;;;;;51.47;24.67;;;;;;;;;;5055788;28;20606;-50
2022/03/12 08:12:25;;;;;;;49.83;24.43;;;;;;;;;;5070045;28;20225;-55
2022/03/12 08:14:52;;;;;;;50.80;24.63;;;;;;;;;;5073568;28;20238;-48
2022/03/12 08:17:19;;;;;;;49.63;22.57;;;;;;;;;;5072522;28;20215;-53
2022/03/12 08:19:47;;;;;;;45.57;23.70;;;;;;;;;;5071823;28;20310;-52
2022/03/12 08:22:15;;;;;;;46.10;21.47;;;;;;;;;;5072120;28;20243;-52
2022/03/12 08:24:42;;;;;;;62.63;28.83;;;;;;;;;;5054777;28;20222;-50
2022/03/12 08:27:11;;;;;;;58.07;27.10;;;;;;;;;;5072124;28;20211;-48
2022/03/12 08:29:39;;;;;;;51.67;23.93;;;;;;;;;;5045363;28;20231;-49
2022/03/12 08:32:08;;;;;;;62.43;30.23;;;;;;;;;;5068978;28;20310;-49
2022/03/12 08:34:35;;;;;;;82.20;38.03;;;;;;;;;;5070865;28;20241;-51
2022/03/12 08:37:04;;;;;;;44.70;23.43;;;;;;;;;;5067575;28;20266;-54
2022/03/12 08:39:31;;;;;;;54.57;24.33;;;;;;;;;;5072100;28;20242;-50
2022/03/12 08:41:58;;;;;;;92.47;50.30;;;;;;;;;;5071396;28;20306;-50
2022/03/12 08:44:25;;;;;;;56.40;25.33;;;;;;;;;;5072261;28;20235;-54
2022/03/12 08:46:52;;;;;;;53.33;23.97;;;;;;;;;;5071828;28;20730;-49
2022/03/12 08:49:20;;;;;;;56.07;24.10;;;;;;;;;;5078709;28;20725;-51
2022/03/12 08:51:47;;;;;;;47.20;21.50;;;;;;;;;;5076058;28;20227;-52
2022/03/12 08:54:14;;;;;;;51.43;22.63;;;;;;;;;;5073542;28;20525;-55
2022/03/12 08:56:41;;;;;;;53.33;23.00;;;;;;;;;;5074407;28;20255;-49
2022/03/12 08:59:09;;;;;;;44.57;20.03;;;;;;;;;;5076081;28;20251;-53
2022/03/12 09:01:37;;;;;;;44.40;20.93;;;;;;;;;;5074592;28;20215;-51
2022/03/12 09:04:06;;;;;;;40.27;20.30;;;;;;;;;;5070304;28;20301;-50
2022/03/12 09:06:35;;;;;;;43.07;22.47;;;;;;;;;;5070247;28;20751;-50
2022/03/12 09:09:04;;;;;;;48.20;21.37;;;;;;;;;;5072865;28;20258;-51
2022/03/12 09:11:31;;;;;;;42.70;18.83;;;;;;;;;;5075168;28;20565;-49
2022/03/12 09:13:58;;;;;;;37.93;17.97;;;;;;;;;;5072159;28;20296;-51
2022/03/12 09:16:26;;;;;;;31.03;14.70;;;;;;;;;;5075327;28;20659;-52
2022/03/12 09:18:53;;;;;;;28.43;13.13;;;;;;;;;;5075387;28;20223;-50
2022/03/12 09:21:20;;;;;;;26.63;11.57;;;;;;;;;;5072376;28;20219;-50
2022/03/12 09:23:48;;;;;;;25.03;11.07;;;;;;;;;;5075723;28;20272;-50
2022/03/12 09:26:17;;;;;;;22.80;9.63;;;;;;;;;;5075991;28;20230;-50
2022/03/12 09:28:44;;;;;;;49.13;30.53;;;;;;;;;;5070131;28;20229;-53
2022/03/12 09:31:11;;;;;;;32.30;16.07;;;;;;;;;;5076104;28;20250;-52
2022/03/12 09:33:39;;;;;;;40.40;16.23;;;;;;;;;;5075839;28;20225;-58
2022/03/12 09:36:07;;;;;;;24.40;12.87;;;;;;;;;;5076073;28;20227;-57
2022/03/12 09:38:39;;;;;;;26.13;12.47;;;;;;;;;;5069505;28;20227;-58
2022/03/12 09:41:06;;;;;;;21.90;11.33;;;;;;;;;;5075388;28;20227;-58
2022/03/12 09:43:34;;;;;;;24.40;11.83;;;;;;;;;;5058051;28;20624;-55
2022/03/12 09:46:01;;;;;;;21.97;11.30;;;;;;;;;;5076384;28;20611;-58
2022/03/12 09:48:28;;;;;;;23.23;11.43;;;;;;;;;;5075447;28;20638;-57
2022/03/12 09:50:55;;;;;;;74.43;46.27;;;;;;;;;;5076310;28;20324;-57
2022/03/12 09:53:23;;;;;;;25.73;13.13;;;;;;;;;;5075511;28;20258;-61
2022/03/12 09:55:50;;;;;;;29.27;13.57;;;;;;;;;;5076141;28;20707;-60
2022/03/12 09:58:18;;;;;;;22.20;10.83;;;;;;;;;;5075620;28;20254;-57
2022/03/12 10:00:45;;;;;;;23.70;10.07;;;;;;;;;;5075456;28;20598;-54
2022/03/12 10:03:13;;;;;;;18.03;9.20;;;;;;;;;;5075236;28;20242;-59
2022/03/12 10:05:40;;;;;;;21.43;10.43;;;;;;;;;;5075782;28;20289;-57
2022/03/12 10:08:07;;;;;;;22.83;7.93;;;;;;;;;;5075551;28;20251;-57
2022/03/12 10:10:35;;;;;;;15.57;7.60;;;;;;;;;;5075719;28;20258;-56
2022/03/12 10:13:04;;;;;;;138.30;92.07;;;;;;;;;;5075605;28;20276;-57
2022/03/12 10:15:32;;;;;;;14.43;9.17;;;;;;;;;;5075415;28;20253;-56
2022/03/12 10:18:00;;;;;;;17.43;9.10;;;;;;;;;;5074181;28;20302;-57
2022/03/12 10:20:28;;;;;;;20.40;10.53;;;;;;;;;;5075652;28;20243;-58
2022/03/12 10:22:55;;;;;;;16.47;9.37;;;;;;;;;;5062052;28;20651;-57
2022/03/12 10:25:23;;;;;;;16.37;8.67;;;;;;;;;;5073515;28;20231;-56
2022/03/12 10:27:50;;;;;;;17.70;8.97;;;;;;;;;;5074964;28;20646;-60
2022/03/12 10:30:17;;;;;;;18.47;9.13;;;;;;;;;;5067625;28;20234;-58
2022/03/12 10:32:48;;;;;;;24.93;11.40;;;;;;;;;;5061750;28;20691;-58
2022/03/12 10:35:18;;;;;;;62.27;40.23;;;;;;;;;;5054079;28;20250;-58
2022/03/12 10:37:48;;;;;;;19.03;10.67;;;;;;;;;;5074888;28;20228;-57
2022/03/12 10:40:17;;;;;;;19.37;9.73;;;;;;;;;;5075598;28;20388;-58
2022/03/12 10:42:55;;;;;;;23.83;11.20;;;;;;;;;;5075748;28;20231;-58
2022/03/12 10:45:39;;;;;;;22.23;9.97;;;;;;;;;;5071229;28;20223;-56
2022/03/12 10:48:06;;;;;;;19.93;9.37;;;;;;;;;;5068586;28;20268;-56
2022/03/12 10:50:39;;;;;;;24.23;11.73;;;;;;;;;;5070576;28;20266;-58
2022/03/12 10:53:07;;;;;;;26.33;11.47;;;;;;;;;;5071377;28;20219;-55
2022/03/12 10:55:40;;;;;;;20.83;10.10;;;;;;;;;;5073549;28;20219;-56
2022/03/12 10:58:12;;;;;;;58.87;41.23;;;;;;;;;;5070979;28;20258;-57
2022/03/12 11:00:53;;;;;;;21.07;11.07;;;;;;;;;;5073525;28;20235;-60
2022/03/12 11:03:23;;;;;;;24.40;10.77;;;;;;;;;;5052129;28;20250;-61
2022/03/12 11:05:51;;;;;;;30.70;12.13;;;;;;;;;;5073367;28;20325;-58
2022/03/12 11:08:23;;;;;;;20.67;10.53;;;;;;;;;;5070055;28;20238;-61
2022/03/12 11:10:54;;;;;;;20.10;10.00;;;;;;;;;;5068733;28;20281;-57
2022/03/12 11:13:40;;;;;;;18.43;8.73;;;;;;;;;;5060690;28;20231;-57
2022/03/12 11:16:12;;;;;;;21.10;8.90;;;;;;;;;;5062456;28;20274;-57
2022/03/12 11:18:51;;;;;;;298.47;153.83;;;;;;;;;;5074345;28;20250;-55
2022/03/12 11:21:37;;;;;;;32.90;14.93;;;;;;;;;;5075056;28;20254;-58
2022/03/12 11:24:16;;;;;;;17.43;9.20;;;;;;;;;;5066877;28;20311;-56
2022/03/12 11:26:54;;;;;;;16.10;8.73;;;;;;;;;;5055023;28;20248;-57
2022/03/12 11:29:25;;;;;;;14.83;7.60;;;;;;;;;;5054584;28;20284;-53
2022/03/12 11:31:56;;;;;;;18.73;8.60;;;;;;;;;;5054513;28;20266;-60
2022/03/12 11:34:34;;;;;;;16.30;8.37;;;;;;;;;;5054860;28;20287;-60
2022/03/12 11:37:16;;;;;;;19.90;9.00;;;;;;;;;;5074862;28;20246;-56
2022/03/12 11:39:48;;;;;;;22.10;8.27;;;;;;;;;;5074233;28;20219;-54
2022/03/12 11:42:18;;;;;;;14.20;6.57;;;;;;;;;;5074629;28;20255;-50
2022/03/12 11:44:48;;;;;;;11.90;6.23;;;;;;;;;;5074428;28;20227;-55
2022/03/12 11:47:17;;;;;;;12.73;6.03;;;;;;;;;;5073916;28;20250;-53
2022/03/12 11:49:46;;;;;;;11.90;6.30;;;;;;;;;;5073946;28;20344;-48
2022/03/12 11:52:15;;;;;;;21.50;12.70;;;;;;;;;;5074517;28;20235;-55
2022/03/12 11:54:43;;;;;;;14.30;7.47;;;;;;;;;;5074010;28;20227;-53
2022/03/12 11:57:16;;;;;;;14.37;6.67;;;;;;;;;;5074279;28;20736;-54
2022/03/12 11:59:43;;;;;;;13.47;6.67;;;;;;;;;;5073876;28;20272;-54
2022/03/12 12:02:27;;;;;;;14.53;7.33;;;;;;;;;;5073680;28;20277;-51
2022/03/12 12:04:55;;;;;;;14.63;7.43;;;;;;;;;;5073952;28;20281;-50
2022/03/12 12:07:24;;;;;;;16.30;8.17;;;;;;;;;;5073826;28;20231;-58
2022/03/12 12:09:52;;;;;;;18.93;9.10;;;;;;;;;;5073364;28;20219;-54
2022/03/12 12:12:22;;;;;;;15.20;7.87;;;;;;;;;;5074366;28;20676;-54
2022/03/12 12:14:49;;;;;;;32.13;13.20;;;;;;;;;;5073722;28;20235;-57
2022/03/12 12:17:17;;;;;;;20.57;7.90;;;;;;;;;;5073795;28;20252;-56
2022/03/12 12:19:44;;;;;;;28.97;12.93;;;;;;;;;;5073270;28;20223;-55
2022/03/12 12:22:13;;;;;;;28.43;12.10;;;;;;;;;;5073448;28;20269;-53
2022/03/12 12:24:42;;;;;;;30.43;11.20;;;;;;;;;;5073325;28;20233;-55
2022/03/12 12:27:13;;;;;;;42.30;24.30;;;;;;;;;;5073954;28;20531;-54
2022/03/12 12:29:40;;;;;;;34.97;12.17;;;;;;;;;;5073466;28;20257;-56
2022/03/12 12:32:09;;;;;;;21.33;8.40;;;;;;;;;;5073324;28;20673;-53
2022/03/12 12:34:58;;;;;;;14.70;7.00;;;;;;;;;;5073254;28;20222;-52
2022/03/12 12:37:44;;;;;;;20.80;9.00;;;;;;;;;;5073547;28;20258;-53
2022/03/12 12:40:33;;;;;;;26.53;9.77;;;;;;;;;;5073476;28;20219;-55
2022/03/12 12:43:05;;;;;;;28.03;10.67;;;;;;;;;;5073532;28;20250;-55
2022/03/12 12:45:36;;;;;;;21.17;9.03;;;;;;;;;;5074223;28;20280;-57
2022/03/12 12:48:14;;;;;;;20.60;9.00;;;;;;;;;;5073150;28;20250;-55
2022/03/12 12:51:01;;;;;;;31.67;15.70;;;;;;;;;;5071269;28;20229;-54
2022/03/12 12:53:38;;;;;;;26.73;11.50;;;;;;;;;;5071366;28;20383;-57
2022/03/12 12:56:17;;;;;;;20.37;9.20;;;;;;;;;;5071992;28;20219;-57
2022/03/12 12:59:06;;;;;;;25.47;10.97;;;;;;;;;;5071282;28;20250;-56
2022/03/12 13:01:45;;;;;;;15.30;7.77;;;;;;;;;;5072215;28;20231;-57
2022/03/12 13:04:16;;;;;;;26.43;10.23;;;;;;;;;;5072513;28;20299;-61
2022/03/12 13:06:48;;;;;;;28.13;10.90;;;;;;;;;;5071663;28;20681;-56
2022/03/12 13:09:21;;;;;;;24.10;9.87;;;;;;;;;;5070835;28;20308;-58
2022/03/12 13:11:50;;;;;;;54.57;35.43;;;;;;;;;;5070719;28;20684;-56
2022/03/12 13:14:23;;;;;;;28.47;11.73;;;;;;;;;;5065923;28;20282;-56
2022/03/12 13:16:57;;;;;;;31.40;13.93;;;;;;;;;;5053590;28;20596;-57
2022/03/12 13:19:28;;;;;;;26.93;11.57;;;;;;;;;;5072498;28;20310;-58
2022/03/12 13:21:58;;;;;;;21.67;9.07;;;;;;;;;;5073406;28;20269;-57
2022/03/12 13:24:30;;;;;;;24.90;10.07;;;;;;;;;;5070275;28;20234;-58
2022/03/12 13:27:02;;;;;;;30.13;10.70;;;;;;;;;;5069520;28;20211;-58
2022/03/12 13:29:30;;;;;;;20.17;8.07;;;;;;;;;;5071442;28;20270;-57
2022/03/12 13:31:57;;;;;;;33.73;11.57;;;;;;;;;;5071347;28;20658;-56
2022/03/12 13:34:25;;;;;;;98.83;86.00;;;;;;;;;;5071136;28;20656;-58
2022/03/12 13:36:55;;;;;;;18.10;9.03;;;;;;;;;;5074703;28;20258;-61
2022/03/12 13:39:23;;;;;;;23.93;9.83;;;;;;;;;;5074121;28;20657;-62
2022/03/12 13:41:51;;;;;;;20.67;8.93;;;;;;;;;;5072783;28;20227;-57
2022/03/12 13:44:20;;;;;;;15.57;6.83;;;;;;;;;;5074223;28;20628;-58
2022/03/12 13:46:49;;;;;;;18.37;9.50;;;;;;;;;;5072675;28;20296;-57
2022/03/12 13:49:18;;;;;;;19.37;8.73;;;;;;;;;;5071942;28;20352;-56
2022/03/12 13:51:53;;;;;;;18.13;8.10;;;;;;;;;;5075112;28;20235;-57
2022/03/12 13:54:25;;;;;;;15.60;7.50;;;;;;;;;;5074384;28;20684;-59
2022/03/12 13:56:53;;;;;;;29.07;16.77;;;;;;;;;;5074848;28;20254;-59
2022/03/12 13:59:27;;;;;;;22.50;10.77;;;;;;;;;;5056348;28;20970;-63
2022/03/12 14:01:56;;;;;;;22.90;10.30;;;;;;;;;;5075789;28;20223;-56
2022/03/12 14:04:32;;;;;;;18.00;9.20;;;;;;;;;;5075069;28;20211;-57
2022/03/12 14:07:18;;;;;;;26.37;10.27;;;;;;;;;;5073263;28;20250;-55
2022/03/12 14:09:47;;;;;;;23.53;10.17;;;;;;;;;;5075483;28;20215;-56
2022/03/12 14:12:19;;;;;;;21.40;11.17;;;;;;;;;;5073240;28;20251;-56
2022/03/12 14:14:48;;;;;;;24.53;11.30;;;;;;;;;;5074695;28;20242;-56
2022/03/12 14:17:16;;;;;;;24.60;10.33;;;;;;;;;;5072932;28;20223;-56
2022/03/12 14:19:43;;;;;;;18.30;9.47;;;;;;;;;;5075146;28;20645;-54
2022/03/12 14:22:11;;;;;;;19.70;9.33;;;;;;;;;;5075727;28;20254;-55
2022/03/12 14:24:40;;;;;;;18.23;9.43;;;;;;;;;;5074391;28;20239;-54
2022/03/12 14:27:11;;;;;;;22.00;9.60;;;;;;;;;;5075189;28;20215;-61
2022/03/12 14:29:40;;;;;;;22.13;9.90;;;;;;;;;;5074682;28;20339;-56
2022/03/12 14:32:09;;;;;;;17.53;8.00;;;;;;;;;;5072728;28;20254;-55
2022/03/12 14:34:38;;;;;;;66.53;30.97;;;;;;;;;;5055904;28;20261;-56
2022/03/12 14:37:07;;;;;;;54.17;37.43;;;;;;;;;;5071499;28;20230;-58